sensor_id;sensor_type;location;lat;lon;timestamp;P1;durP1;ratioP1;P2;durP2;ratioP2
51292;SDS011;37377;45.186;9.778;2022-10-22T18:25:28;69.43;;;36.25;;
51292;SDS011;37377;45.186;9.778;2022-10-22T18:27:57;52.58;;;34.58;;
51292;SDS011;37377;45.186;9.778;2022-10-22T18:30:24;56.42;;;34.05;;
51292;SDS011;37377;45.186;9.778;2022-10-22T18:32:52;54.33;;;33.92;;
51292;SDS011;37377;45.186;9.778;2022-10-22T18:40:00;65.05;;;34.40;;
51292;SDS011;37377;45.186;9.778;2022-10-22T18:57:40;63.33;;;33.45;;
51292;SDS011;37377;45.186;9.778;2022-10-22T19:01:26;62.08;;;34.47;;
51292;SDS011;37377;45.186;9.778;2022-10-22T19:08:58;63.90;;;36.38;;
51292;SDS011;37377;45.186;9.778;2022-10-22T19:22:33;52.35;;;27.65;;
51292;SDS011;37377;45.186;9.778;2022-10-22T19:25:14;51.45;;;27.70;;
51292;SDS011;37377;45.186;9.778;2022-10-22T19:27:50;54.22;;;29.17;;
51292;SDS011;37377;45.186;9.778;2022-10-22T19:30:28;47.30;;;25.80;;
51292;SDS011;37377;45.186;9.778;2022-10-22T19:33:08;44.47;;;24.35;;
51292;SDS011;37377;45.186;9.778;2022-10-22T19:36:08;55.92;;;24.55;;
51292;SDS011;37377;45.186;9.778;2022-10-22T19:38:49;45.08;;;24.38;;
51292;SDS011;37377;45.186;9.778;2022-10-22T19:41:20;46.50;;;25.27;;
51292;SDS011;37377;45.186;9.778;2022-10-22T19:44:00;35.70;;;21.73;;
51292;SDS011;37377;45.186;9.778;2022-10-22T19:46:28;39.05;;;20.98;;
51292;SDS011;37377;45.186;9.778;2022-10-22T19:48:57;38.22;;;22.77;;
51292;SDS011;37377;45.186;9.778;2022-10-22T19:52:00;37.47;;;20.45;;
51292;SDS011;37377;45.186;9.778;2022-10-22T19:54:34;42.78;;;20.25;;
51292;SDS011;37377;45.186;9.778;2022-10-22T19:57:08;30.77;;;18.80;;
51292;SDS011;37377;45.186;9.778;2022-10-22T19:59:39;23.73;;;16.65;;
51292;SDS011;37377;45.186;9.778;2022-10-22T20:02:12;36.25;;;17.30;;
51292;SDS011;37377;45.186;9.778;2022-10-22T20:04:41;40.78;;;17.42;;
51292;SDS011;37377;45.186;9.778;2022-10-22T20:07:21;32.25;;;16.95;;
51292;SDS011;37377;45.186;9.778;2022-10-22T20:09:51;25.90;;;16.02;;
51292;SDS011;37377;45.186;9.778;2022-10-22T20:12:26;29.67;;;17.65;;
51292;SDS011;37377;45.186;9.778;2022-10-22T20:14:57;36.38;;;17.70;;
51292;SDS011;37377;45.186;9.778;2022-10-22T20:17:31;27.27;;;15.65;;
51292;SDS011;37377;45.186;9.778;2022-10-22T20:20:01;26.85;;;16.50;;
51292;SDS011;37377;45.186;9.778;2022-10-22T20:22:44;24.80;;;15.52;;
51292;SDS011;37377;45.186;9.778;2022-10-22T20:25:20;25.70;;;14.82;;
51292;SDS011;37377;45.186;9.778;2022-10-22T20:27:47;21.10;;;13.57;;
51292;SDS011;37377;45.186;9.778;2022-10-22T20:30:15;21.02;;;13.38;;
51292;SDS011;37377;45.186;9.778;2022-10-22T20:32:47;25.45;;;13.93;;
51292;SDS011;37377;45.186;9.778;2022-10-22T20:35:19;28.90;;;14.80;;
51292;SDS011;37377;45.186;9.778;2022-10-22T20:37:49;24.90;;;15.02;;
51292;SDS011;37377;45.186;9.778;2022-10-22T20:40:18;26.85;;;14.48;;
51292;SDS011;37377;45.186;9.778;2022-10-22T20:42:51;17.92;;;13.30;;
51292;SDS011;37377;45.186;9.778;2022-10-22T20:45:19;24.70;;;12.38;;
51292;SDS011;37377;45.186;9.778;2022-10-22T20:47:54;21.73;;;12.55;;
51292;SDS011;37377;45.186;9.778;2022-10-22T20:50:31;13.73;;;10.80;;
51292;SDS011;37377;45.186;9.778;2022-10-22T20:53:03;19.88;;;9.77;;
51292;SDS011;37377;45.186;9.778;2022-10-22T20:55:46;19.20;;;10.45;;
51292;SDS011;37377;45.186;9.778;2022-10-22T20:58:14;20.65;;;9.93;;
51292;SDS011;37377;45.186;9.778;2022-10-22T21:00:44;15.13;;;9.48;;
51292;SDS011;37377;45.186;9.778;2022-10-22T21:03:21;17.02;;;9.90;;
51292;SDS011;37377;45.186;9.778;2022-10-22T21:06:02;13.82;;;8.90;;
51292;SDS011;37377;45.186;9.778;2022-10-22T21:08:30;15.27;;;9.32;;
51292;SDS011;37377;45.186;9.778;2022-10-22T21:10:58;16.67;;;9.65;;
51292;SDS011;37377;45.186;9.778;2022-10-22T21:13:31;24.60;;;9.65;;
51292;SDS011;37377;45.186;9.778;2022-10-22T21:16:05;28.70;;;10.77;;
51292;SDS011;37377;45.186;9.778;2022-10-22T21:18:35;17.38;;;10.82;;
51292;SDS011;37377;45.186;9.778;2022-10-22T21:21:41;14.48;;;9.13;;
51292;SDS011;37377;45.186;9.778;2022-10-22T21:24:19;25.67;;;11.15;;
51292;SDS011;37377;45.186;9.778;2022-10-22T21:27:03;19.48;;;11.82;;
51292;SDS011;37377;45.186;9.778;2022-10-22T21:29:41;17.98;;;11.50;;
51292;SDS011;37377;45.186;9.778;2022-10-22T21:32:31;21.90;;;11.53;;
51292;SDS011;37377;45.186;9.778;2022-10-22T21:35:01;21.38;;;11.05;;
51292;SDS011;37377;45.186;9.778;2022-10-22T21:37:40;16.90;;;10.45;;
51292;SDS011;37377;45.186;9.778;2022-10-22T21:40:18;11.27;;;10.07;;
51292;SDS011;37377;45.186;9.778;2022-10-22T21:42:48;22.95;;;10.93;;
51292;SDS011;37377;45.186;9.778;2022-10-22T21:45:23;19.63;;;11.85;;
51292;SDS011;37377;45.186;9.778;2022-10-22T21:47:53;23.08;;;10.98;;
51292;SDS011;37377;45.186;9.778;2022-10-22T21:50:22;17.88;;;10.43;;
51292;SDS011;37377;45.186;9.778;2022-10-22T21:53:00;13.63;;;9.45;;
51292;SDS011;37377;45.186;9.778;2022-10-22T21:55:38;17.20;;;8.15;;
51292;SDS011;37377;45.186;9.778;2022-10-22T21:58:45;13.15;;;8.23;;
51292;SDS011;37377;45.186;9.778;2022-10-22T22:01:15;9.45;;;7.80;;
51292;SDS011;37377;45.186;9.778;2022-10-22T22:03:46;10.82;;;8.25;;
51292;SDS011;37377;45.186;9.778;2022-10-22T22:06:19;13.50;;;8.83;;
51292;SDS011;37377;45.186;9.778;2022-10-22T22:09:01;9.75;;;7.53;;
51292;SDS011;37377;45.186;9.778;2022-10-22T22:11:32;9.48;;;6.90;;
51292;SDS011;37377;45.186;9.778;2022-10-22T22:14:05;12.45;;;7.30;;
51292;SDS011;37377;45.186;9.778;2022-10-22T22:16:33;10.10;;;6.15;;
51292;SDS011;37377;45.186;9.778;2022-10-22T22:19:03;6.78;;;6.05;;
51292;SDS011;37377;45.186;9.778;2022-10-22T22:21:38;7.07;;;6.40;;
51292;SDS011;37377;45.186;9.778;2022-10-22T22:24:14;9.73;;;5.82;;
51292;SDS011;37377;45.186;9.778;2022-10-22T22:26:41;8.05;;;5.80;;
51292;SDS011;37377;45.186;9.778;2022-10-22T22:29:09;6.22;;;5.15;;
51292;SDS011;37377;45.186;9.778;2022-10-22T22:31:43;10.40;;;5.18;;
51292;SDS011;37377;45.186;9.778;2022-10-22T22:34:15;9.20;;;4.55;;
51292;SDS011;37377;45.186;9.778;2022-10-22T22:36:45;9.18;;;6.32;;
51292;SDS011;37377;45.186;9.778;2022-10-22T22:39:17;5.07;;;4.22;;
51292;SDS011;37377;45.186;9.778;2022-10-22T22:41:48;8.90;;;4.57;;
51292;SDS011;37377;45.186;9.778;2022-10-22T22:44:15;5.28;;;4.03;;
51292;SDS011;37377;45.186;9.778;2022-10-22T22:46:46;9.65;;;5.18;;
51292;SDS011;37377;45.186;9.778;2022-10-22T22:49:18;10.73;;;8.32;;
51292;SDS011;37377;45.186;9.778;2022-10-22T22:51:47;3.47;;;3.17;;
51292;SDS011;37377;45.186;9.778;2022-10-22T22:54:15;6.80;;;3.95;;
51292;SDS011;37377;45.186;9.778;2022-10-22T22:56:45;6.03;;;3.75;;
51292;SDS011;37377;45.186;9.778;2022-10-22T22:59:16;4.22;;;3.42;;
51292;SDS011;37377;45.186;9.778;2022-10-22T23:01:46;4.30;;;3.67;;
51292;SDS011;37377;45.186;9.778;2022-10-22T23:04:16;3.92;;;3.50;;
51292;SDS011;37377;45.186;9.778;2022-10-22T23:06:59;6.53;;;4.40;;
51292;SDS011;37377;45.186;9.778;2022-10-22T23:09:26;8.30;;;3.78;;
51292;SDS011;37377;45.186;9.778;2022-10-22T23:12:29;7.88;;;3.53;;
51292;SDS011;37377;45.186;9.778;2022-10-22T23:14:56;4.78;;;3.60;;
51292;SDS011;37377;45.186;9.778;2022-10-22T23:17:28;9.13;;;3.47;;
51292;SDS011;37377;45.186;9.778;2022-10-22T23:20:08;13.05;;;4.20;;
51292;SDS011;37377;45.186;9.778;2022-10-22T23:22:41;9.13;;;4.43;;
51292;SDS011;37377;45.186;9.778;2022-10-22T23:25:09;7.75;;;4.55;;
51292;SDS011;37377;45.186;9.778;2022-10-22T23:27:40;7.70;;;5.72;;
51292;SDS011;37377;45.186;9.778;2022-10-22T23:30:10;7.50;;;5.88;;
51292;SDS011;37377;45.186;9.778;2022-10-22T23:32:40;12.82;;;5.25;;
51292;SDS011;37377;45.186;9.778;2022-10-22T23:35:11;10.85;;;6.95;;
51292;SDS011;37377;45.186;9.778;2022-10-22T23:37:40;8.65;;;6.85;;
51292;SDS011;37377;45.186;9.778;2022-10-22T23:40:09;13.15;;;6.63;;
51292;SDS011;37377;45.186;9.778;2022-10-22T23:42:43;11.82;;;7.30;;
51292;SDS011;37377;45.186;9.778;2022-10-22T23:45:10;9.48;;;7.80;;
51292;SDS011;37377;45.186;9.778;2022-10-22T23:47:40;8.95;;;7.97;;
51292;SDS011;37377;45.186;9.778;2022-10-22T23:50:10;12.27;;;8.40;;
51292;SDS011;37377;45.186;9.778;2022-10-22T23:52:40;11.95;;;9.68;;
51292;SDS011;37377;45.186;9.778;2022-10-22T23:55:08;13.85;;;10.05;;
51292;SDS011;37377;45.186;9.778;2022-10-22T23:57:35;16.98;;;10.77;;
